Sevenisland Tomo — JM5778 — position and weather

sailwx.info

Track history (hours):
 
Tides and Currents Weather Stations Pressure Air Temp Water Temp Dewpoint Dewpoint Depression Visibility Wind Speed Wind Dir Waves Ship Positions

Sevenisland Tomo

Last reported at 2017-Dec-11 07:31 UTC. Time now 2017-Dec-13 13:08 UTC.
Position N 35°39' E 139°46'.

Length 27 m; draft 5.4 m.

MMSI: 431009153.

Date/timePositionNaut miles runAvg speedWind from/ knotsBaromVisibWave heightAir tempDewpointWater temp
2017-Dec-11 07:31N 35°39' E 139°46'0 0.4
2017-Dec-11 07:15N 35°39' E 139°46'934.0
2017-Dec-11 06:59N 35°30' E 139°50'1838.8
2017-Dec-11 06:31N 35°12' E 139°47'1937.0
2017-Dec-11 06:00N 34°56' E 139°36'17 3.2
2017-Dec-11 00:45N 34°51' E 139°17'1035.9
2017-Dec-11 00:29N 34°59' E 139°10'816.5
2017-Dec-11 00:01N 35°05' E 139°05'0 0.0
2017-Dec-10 23:29N 35°05' E 139°05'0 0.0
2017-Dec-10 07:34N 35°05' E 139°05'0 2.3
2017-Dec-10 07:29N 35°06' E 139°05'1421.5
2017-Dec-10 06:50N 34°53' E 139°12'1915.8
2017-Dec-10 05:40N 34°57' E 139°34'636.4
2017-Dec-10 05:30N 35°01' E 139°40'1835.7
2017-Dec-10 05:00N 35°18' E 139°45'1835.3
2017-Dec-10 04:31N 35°36' E 139°47'4 7.2
2017-Dec-10 04:00N 35°39' E 139°46'0 0.0
2017-Dec-10 03:30N 35°39' E 139°46'0 0.0
2017-Dec-10 03:00N 35°39' E 139°46'1 2.2
2017-Dec-10 02:29N 35°38' E 139°45'0 0.4
2017-Dec-10 02:00N 35°38' E 139°45'0 0.0
2017-Dec-10 01:31N 35°38' E 139°45'0 0.0
2017-Dec-10 01:00N 35°38' E 139°45'0 0.0
2017-Dec-10 00:30N 35°38' E 139°45'0 0.0
2017-Dec-10 00:00N 35°38' E 139°45'0 0.0
2017-Dec-09 23:30N 35°38' E 139°45'0 0.0
2017-Dec-09 23:00N 35°38' E 139°45'0 0.0
2017-Dec-09 22:30N 35°38' E 139°45'0 0.0
2017-Dec-09 22:00N 35°38' E 139°45'1 0.1
2017-Dec-09 07:39N 35°39' E 139°46'0 0.7
2017-Dec-09 07:31N 35°39' E 139°46'1530.4
2017-Dec-09 07:01N 35°24' E 139°47'1938.0
2017-Dec-09 06:31N 35°05' E 139°43'2239.5
2017-Dec-09 05:57N 34°49' E 139°25'1 0.2
2017-Dec-09 00:47N 34°50' E 139°25'1137.8
2017-Dec-09 00:29N 34°57' E 139°35'1938.6
2017-Dec-09 00:00N 35°13' E 139°47'1939.0
2017-Dec-08 23:31N 35°32' E 139°50'813.3
2017-Dec-08 22:56N 35°39' E 139°46'1 2.7
2017-Dec-08 22:30N 35°38' E 139°45'0 0.0
2017-Dec-08 22:00N 35°38' E 139°45'0 0.0
2017-Dec-08 21:30N 35°38' E 139°45'0 0.0
2017-Dec-08 09:59N 35°38' E 139°45'0 0.0
2017-Dec-08 09:30N 35°38' E 139°45'0 0.0
2017-Dec-08 09:00N 35°38' E 139°45'0 0.0
2017-Dec-08 08:30N 35°38' E 139°45'0 0.0
2017-Dec-08 08:00N 35°38' E 139°45'1 1.6
2017-Dec-08 07:17N 35°39' E 139°46'930.1
2017-Dec-08 07:00N 35°31' E 139°50'1937.9
2017-Dec-08 06:30N 35°13' E 139°47'2138.7
2017-Dec-08 05:58N 34°55' E 139°33'18 3.4
2017-Dec-08 00:31N 34°58' E 139°11'044.6
2017-Dec-08 00:30N 34°59' E 139°11'816.6
2017-Dec-08 00:00N 35°05' E 139°05'0 0.0
2017-Dec-07 23:31N 35°05' E 139°05'0 0.0
2017-Dec-07 07:18N 35°05' E 139°05'620.7
2017-Dec-07 07:00N 35°01' E 139°10'1717.6
2017-Dec-07 06:00N 34°46' E 139°20'1938.5
2017-Dec-07 05:30N 34°60' E 139°36'1939.0
2017-Dec-07 05:01N 35°17' E 139°46'1937.9
2017-Dec-07 04:31N 35°36' E 139°46'3 1.8
2017-Dec-07 02:51N 35°39' E 139°46'1234.7
2017-Dec-07 02:30N 35°28' E 139°49'2040.3
2017-Dec-07 02:01N 35°08' E 139°45'3041.1
2017-Dec-07 01:17N 34°47' E 139°20'5 9.6
2017-Dec-07 00:43N 34°50' E 139°15'1040.6
2017-Dec-07 00:28N 34°59' E 139°09'715.6
2017-Dec-07 00:00N 35°05' E 139°05'0 0.0
2017-Dec-06 23:30N 35°05' E 139°05'  
2017-Dec-04 07:28N 35°39' E 139°46'918.7
2017-Dec-04 07:00N 35°31' E 139°50'2040.2
2017-Dec-04 06:30N 35°11' E 139°47'34 5.6
2017-Dec-04 00:27N 34°59' E 139°09'716.4
2017-Dec-04 00:00N 35°05' E 139°05'0 0.0
2017-Dec-03 23:29N 35°05' E 139°05'0 0.0
2017-Dec-03 08:36N 35°05' E 139°05'0 0.0
2017-Dec-03 08:30N 35°05' E 139°05'1 1.2
2017-Dec-03 08:00N 35°06' E 139°05'2311.2
2017-Dec-03 05:58N 34°46' E 139°20'1636.3
2017-Dec-03 05:30N 34°58' E 139°34'2040.1
2017-Dec-03 05:01N 35°15' E 139°47'1938.8
2017-Dec-03 04:31N 35°35' E 139°48'5 6.5
2017-Dec-03 03:44N 35°39' E 139°46'832.6
2017-Dec-03 03:30N 35°32' E 139°50'1940.2
2017-Dec-03 03:01N 35°13' E 139°47'3424.3
2017-Dec-03 01:36N 34°46' E 139°20'1538.3
2017-Dec-03 01:13N 34°57' E 139°33'942.9
2017-Dec-03 01:01N 35°03' E 139°41'1020.4
2017-Dec-03 00:30N 35°13' E 139°43'1326.3
2017-Dec-03 00:01N 35°26' E 139°48'1427.2
2017-Dec-02 23:30N 35°39' E 139°46'1 2.3
2017-Dec-02 23:00N 35°38' E 139°46'0 0.5
2017-Dec-02 22:30N 35°38' E 139°45'0 0.0
2017-Dec-02 22:00N 35°38' E 139°45'1 0.1
2017-Dec-02 07:44N 35°39' E 139°46'0 0.9
2017-Dec-02 07:31N 35°39' E 139°46'1632.5
2017-Dec-02 07:01N 35°23' E 139°46'1836.7
2017-Dec-02 06:30N 35°05' E 139°43'23 4.1
2017-Dec-02 00:52N 34°48' E 139°23'1337.3
2017-Dec-02 00:30N 34°58' E 139°34'2336.3
2017-Dec-01 23:53N 35°19' E 139°45'1916.6
2017-Dec-01 22:43N 35°38' E 139°46'0 1.5
2017-Dec-01 22:30N 35°38' E 139°45'0 0.0
2017-Dec-01 22:00N 35°38' E 139°45'  
Track history (hours):
 
Tides and Currents Weather Stations Pressure Air Temp Water Temp Dewpoint Dewpoint Depression Visibility Wind Speed Wind Dir Waves Ship Positions

Sevenisland Tomo

Last reported at 2017-Dec-11 07:31 UTC. Time now 2017-Dec-13 13:08 UTC.
Position N 35°39' E 139°46'.

Length 27 m; draft 5.4 m.

MMSI: 431009153.

Date/timePositionNaut miles runAvg speedWind from/ knotsBaromVisibWave heightAir tempDewpointWater temp
2017-Dec-11 07:31N 35°39' E 139°46'0 0.4
2017-Dec-11 07:15N 35°39' E 139°46'934.0
2017-Dec-11 06:59N 35°30' E 139°50'1838.8
2017-Dec-11 06:31N 35°12' E 139°47'1937.0
2017-Dec-11 06:00N 34°56' E 139°36'17 3.2
2017-Dec-11 00:45N 34°51' E 139°17'1035.9
2017-Dec-11 00:29N 34°59' E 139°10'816.5
2017-Dec-11 00:01N 35°05' E 139°05'0 0.0
2017-Dec-10 23:29N 35°05' E 139°05'0 0.0
2017-Dec-10 07:34N 35°05' E 139°05'0 2.3
2017-Dec-10 07:29N 35°06' E 139°05'1421.5
2017-Dec-10 06:50N 34°53' E 139°12'1915.8
2017-Dec-10 05:40N 34°57' E 139°34'636.4
2017-Dec-10 05:30N 35°01' E 139°40'1835.7
2017-Dec-10 05:00N 35°18' E 139°45'1835.3
2017-Dec-10 04:31N 35°36' E 139°47'4 7.2
2017-Dec-10 04:00N 35°39' E 139°46'0 0.0
2017-Dec-10 03:30N 35°39' E 139°46'0 0.0
2017-Dec-10 03:00N 35°39' E 139°46'1 2.2
2017-Dec-10 02:29N 35°38' E 139°45'0 0.4
2017-Dec-10 02:00N 35°38' E 139°45'0 0.0
2017-Dec-10 01:31N 35°38' E 139°45'0 0.0
2017-Dec-10 01:00N 35°38' E 139°45'0 0.0
2017-Dec-10 00:30N 35°38' E 139°45'0 0.0
2017-Dec-10 00:00N 35°38' E 139°45'0 0.0
2017-Dec-09 23:30N 35°38' E 139°45'0 0.0
2017-Dec-09 23:00N 35°38' E 139°45'0 0.0
2017-Dec-09 22:30N 35°38' E 139°45'0 0.0
2017-Dec-09 22:00N 35°38' E 139°45'1 0.1
2017-Dec-09 07:39N 35°39' E 139°46'0 0.7
2017-Dec-09 07:31N 35°39' E 139°46'1530.4
2017-Dec-09 07:01N 35°24' E 139°47'1938.0
2017-Dec-09 06:31N 35°05' E 139°43'2239.5
2017-Dec-09 05:57N 34°49' E 139°25'1 0.2
2017-Dec-09 00:47N 34°50' E 139°25'1137.8
2017-Dec-09 00:29N 34°57' E 139°35'1938.6
2017-Dec-09 00:00N 35°13' E 139°47'1939.0
2017-Dec-08 23:31N 35°32' E 139°50'813.3
2017-Dec-08 22:56N 35°39' E 139°46'1 2.7
2017-Dec-08 22:30N 35°38' E 139°45'0 0.0
2017-Dec-08 22:00N 35°38' E 139°45'0 0.0
2017-Dec-08 21:30N 35°38' E 139°45'0 0.0
2017-Dec-08 09:59N 35°38' E 139°45'0 0.0
2017-Dec-08 09:30N 35°38' E 139°45'0 0.0
2017-Dec-08 09:00N 35°38' E 139°45'0 0.0
2017-Dec-08 08:30N 35°38' E 139°45'0 0.0
2017-Dec-08 08:00N 35°38' E 139°45'1 1.6
2017-Dec-08 07:17N 35°39' E 139°46'930.1
2017-Dec-08 07:00N 35°31' E 139°50'1937.9
2017-Dec-08 06:30N 35°13' E 139°47'2138.7
2017-Dec-08 05:58N 34°55' E 139°33'18 3.4
2017-Dec-08 00:31N 34°58' E 139°11'044.6
2017-Dec-08 00:30N 34°59' E 139°11'816.6
2017-Dec-08 00:00N 35°05' E 139°05'0 0.0
2017-Dec-07 23:31N 35°05' E 139°05'0 0.0
2017-Dec-07 07:18N 35°05' E 139°05'620.7
2017-Dec-07 07:00N 35°01' E 139°10'1717.6
2017-Dec-07 06:00N 34°46' E 139°20'1938.5
2017-Dec-07 05:30N 34°60' E 139°36'1939.0
2017-Dec-07 05:01N 35°17' E 139°46'1937.9
2017-Dec-07 04:31N 35°36' E 139°46'3 1.8
2017-Dec-07 02:51N 35°39' E 139°46'1234.7
2017-Dec-07 02:30N 35°28' E 139°49'2040.3
2017-Dec-07 02:01N 35°08' E 139°45'3041.1
2017-Dec-07 01:17N 34°47' E 139°20'5 9.6
2017-Dec-07 00:43N 34°50' E 139°15'1040.6
2017-Dec-07 00:28N 34°59' E 139°09'715.6
2017-Dec-07 00:00N 35°05' E 139°05'0 0.0
2017-Dec-06 23:30N 35°05' E 139°05'  
2017-Dec-04 07:28N 35°39' E 139°46'918.7
2017-Dec-04 07:00N 35°31' E 139°50'2040.2
2017-Dec-04 06:30N 35°11' E 139°47'34 5.6
2017-Dec-04 00:27N 34°59' E 139°09'716.4
2017-Dec-04 00:00N 35°05' E 139°05'0 0.0
2017-Dec-03 23:29N 35°05' E 139°05'0 0.0
2017-Dec-03 08:36N 35°05' E 139°05'0 0.0
2017-Dec-03 08:30N 35°05' E 139°05'1 1.2
2017-Dec-03 08:00N 35°06' E 139°05'2311.2
2017-Dec-03 05:58N 34°46' E 139°20'1636.3
2017-Dec-03 05:30N 34°58' E 139°34'2040.1
2017-Dec-03 05:01N 35°15' E 139°47'1938.8
2017-Dec-03 04:31N 35°35' E 139°48'5 6.5
2017-Dec-03 03:44N 35°39' E 139°46'832.6
2017-Dec-03 03:30N 35°32' E 139°50'1940.2
2017-Dec-03 03:01N 35°13' E 139°47'3424.3
2017-Dec-03 01:36N 34°46' E 139°20'1538.3
2017-Dec-03 01:13N 34°57' E 139°33'942.9
2017-Dec-03 01:01N 35°03' E 139°41'1020.4
2017-Dec-03 00:30N 35°13' E 139°43'1326.3
2017-Dec-03 00:01N 35°26' E 139°48'1427.2
2017-Dec-02 23:30N 35°39' E 139°46'1 2.3
2017-Dec-02 23:00N 35°38' E 139°46'0 0.5
2017-Dec-02 22:30N 35°38' E 139°45'0 0.0
2017-Dec-02 22:00N 35°38' E 139°45'1 0.1
2017-Dec-02 07:44N 35°39' E 139°46'0 0.9
2017-Dec-02 07:31N 35°39' E 139°46'1632.5
2017-Dec-02 07:01N 35°23' E 139°46'1836.7
2017-Dec-02 06:30N 35°05' E 139°43'23 4.1
2017-Dec-02 00:52N 34°48' E 139°23'1337.3
2017-Dec-02 00:30N 34°58' E 139°34'2336.3
2017-Dec-01 23:53N 35°19' E 139°45'1916.6
2017-Dec-01 22:43N 35°38' E 139°46'0 1.5
2017-Dec-01 22:30N 35°38' E 139°45'0 0.0
2017-Dec-01 22:00N 35°38' E 139°45'  

Dump ship's entire track history